Terminal Aerodrome Forecast
Issued by NWS

Home | Current Version | Previous Version | Graphics & Text | Print | Product List | Glossary On
Versions: 1 2 3 4 5 6 7 8 9 10 11 12
359
FTUS42 KMHX 241133
TAFISO
TAF
KISO 241133Z 2412/2512 VRB04KT P6SM FEW012
     FM241600 20010KT P6SM SCT045
     FM250400 VRB03KT P6SM SKC
      AMD LTD TO CLD VIS AND WIND=

USA.gov is the U.S. government's official web portal to all federal, state and local government web resources and services.